Time;durP1;ratioP1;P1;durP2;ratioP2;P2;SDS_P1;SDS_P2;PMS_P1;PMS_P2;Temp;Humidity;BMP_temperature;BMP_pressure;BME280_temperature;BME280_humidity;BME280_pressure;Samples;Min_cycle;Max_cycle;Signal;HPM_P1;HPM_P2
2022/06/07 00:02:40;;;;;;;3.80;1.77;;;;;;;;;;5103740;28;20335;-77
2022/06/07 00:05:26;;;;;;;6.70;1.83;;;;;;;;;;5084131;28;20478;-77
2022/06/07 00:08:12;;;;;;;5.05;2.10;;;;;;;;;;5109447;28;20073;-78
2022/06/07 00:10:58;;;;;;;4.10;2.13;;;;;;;;;;5104315;28;20062;-79
2022/06/07 00:13:45;;;;;;;3.97;1.55;;;;;;;;;;5101178;28;20012;-79
2022/06/07 00:16:31;;;;;;;5.30;1.80;;;;;;;;;;5113957;28;20069;-71
2022/06/07 00:19:16;;;;;;;5.43;1.83;;;;;;;;;;5108961;28;20394;-63
2022/06/07 00:22:03;;;;;;;5.38;1.90;;;;;;;;;;5107507;28;20052;-62
2022/06/07 00:24:49;;;;;;;2.00;1.80;;;;;;;;;;5101418;28;20559;-64
2022/06/07 00:27:34;;;;;;;3.88;1.90;;;;;;;;;;5111421;28;20028;-63
2022/06/07 00:30:20;;;;;;;5.25;2.65;;;;;;;;;;5108032;28;20026;-63
2022/06/07 00:33:06;;;;;;;3.97;2.00;;;;;;;;;;5099001;28;20090;-79
2022/06/07 00:35:51;;;;;;;4.22;2.05;;;;;;;;;;5106291;28;20016;-83
2022/06/07 00:38:37;;;;;;;3.65;1.98;;;;;;;;;;5106078;28;20152;-80
2022/06/07 00:41:23;;;;;;;2.17;1.60;;;;;;;;;;5109842;28;20038;-80
2022/06/07 00:44:21;;;;;;;2.40;1.58;;;;;;;;;;5109243;28;20032;-79
2022/06/07 00:47:10;;;;;;;4.15;1.80;;;;;;;;;;5108088;28;20038;-79
2022/06/07 00:50:08;;;;;;;2.35;1.70;;;;;;;;;;5105943;28;20234;-79
2022/06/07 00:52:53;;;;;;;3.28;1.50;;;;;;;;;;5095909;28;20496;-76
2022/06/07 00:55:39;;;;;;;4.10;1.80;;;;;;;;;;5101117;28;20019;-80
2022/06/07 00:58:28;;;;;;;6.25;1.98;;;;;;;;;;5108931;28;20015;-79
2022/06/07 01:01:13;;;;;;;1.92;1.70;;;;;;;;;;5106875;28;20127;-80
2022/06/07 01:03:59;;;;;;;3.58;1.52;;;;;;;;;;5095289;28;20023;-81
2022/06/07 01:12:53;;;;;;;4.00;1.70;;;;;;;;;;5105415;28;20016;-82
2022/06/07 01:15:38;;;;;;;2.78;1.67;;;;;;;;;;5114022;28;20042;-81
2022/06/07 01:18:24;;;;;;;2.72;1.60;;;;;;;;;;5110184;28;20020;-80
2022/06/07 01:21:12;;;;;;;3.40;1.80;;;;;;;;;;5118097;27;20015;-80
2022/06/07 01:23:57;;;;;;;2.67;1.67;;;;;;;;;;5098991;28;20044;-81
2022/06/07 01:26:43;;;;;;;2.55;1.30;;;;;;;;;;5115175;28;20020;-80
2022/06/07 01:29:29;;;;;;;3.60;1.50;;;;;;;;;;5115068;28;20023;-72
2022/06/07 01:32:14;;;;;;;4.70;1.70;;;;;;;;;;5105965;28;20157;-64
2022/06/07 01:35:00;;;;;;;4.75;1.50;;;;;;;;;;5101252;28;20015;-62
2022/06/07 01:37:46;;;;;;;2.15;1.30;;;;;;;;;;5099749;28;20214;-64
2022/06/07 01:43:35;;;;;;;1.65;1.38;;;;;;;;;;5102814;28;20039;-64
2022/06/07 01:46:21;;;;;;;4.72;2.10;;;;;;;;;;5105508;28;20094;-71
2022/06/07 01:49:07;;;;;;;4.72;1.50;;;;;;;;;;5106750;28;20067;-70
2022/06/07 01:51:53;;;;;;;2.55;1.60;;;;;;;;;;5101853;28;20019;-70
2022/06/07 01:54:38;;;;;;;3.17;1.30;;;;;;;;;;5123636;28;20031;-71
2022/06/07 01:57:24;;;;;;;3.35;1.50;;;;;;;;;;5111119;28;20022;-72
2022/06/07 02:00:10;;;;;;;5.70;1.52;;;;;;;;;;5106607;27;20104;-71
2022/06/07 02:02:55;;;;;;;1.63;1.33;;;;;;;;;;5101121;28;20504;-72
2022/06/07 02:05:41;;;;;;;3.42;1.80;;;;;;;;;;5095222;28;20020;-71
2022/06/07 02:08:27;;;;;;;2.05;1.52;;;;;;;;;;5102295;28;20027;-60
2022/06/07 02:11:14;;;;;;;2.15;1.70;;;;;;;;;;5102482;28;20086;-60
2022/06/07 02:13:59;;;;;;;2.58;1.40;;;;;;;;;;5100660;28;20382;-61
2022/06/07 02:16:45;;;;;;;4.10;1.48;;;;;;;;;;5113175;28;20024;-61
2022/06/07 02:19:31;;;;;;;1.50;1.15;;;;;;;;;;5102589;28;20020;-60
2022/06/07 02:22:16;;;;;;;3.40;1.92;;;;;;;;;;5099532;28;20045;-60
2022/06/07 02:25:02;;;;;;;3.30;1.42;;;;;;;;;;5115594;28;20259;-60
2022/06/07 02:27:47;;;;;;;2.88;1.55;;;;;;;;;;5117181;28;20008;-71
2022/06/07 02:30:33;;;;;;;2.40;1.30;;;;;;;;;;5098460;28;20433;-72
2022/06/07 02:33:19;;;;;;;3.15;1.35;;;;;;;;;;5098578;28;20422;-73
2022/06/07 02:36:06;;;;;;;2.17;1.30;;;;;;;;;;5104338;28;20024;-72
2022/06/07 02:38:52;;;;;;;1.25;1.02;;;;;;;;;;5102008;28;20031;-72
2022/06/07 02:41:38;;;;;;;1.50;1.20;;;;;;;;;;5101247;28;20023;-78
2022/06/07 02:44:24;;;;;;;3.08;1.40;;;;;;;;;;5106853;28;20039;-71
2022/06/07 02:47:10;;;;;;;5.68;1.60;;;;;;;;;;5110521;28;20072;-72
2022/06/07 02:49:55;;;;;;;3.80;1.45;;;;;;;;;;5109276;28;20546;-72
2022/06/07 02:52:41;;;;;;;3.88;1.38;;;;;;;;;;5113805;28;20386;-71
2022/06/07 02:55:27;;;;;;;4.80;1.80;;;;;;;;;;5112192;28;20390;-71
2022/06/07 02:58:12;;;;;;;1.92;1.50;;;;;;;;;;5114445;28;20023;-70
2022/06/07 03:00:58;;;;;;;2.83;1.20;;;;;;;;;;5113213;28;20494;-64
2022/06/07 03:03:44;;;;;;;3.40;1.30;;;;;;;;;;5113313;28;20028;-80
2022/06/07 03:06:30;;;;;;;2.65;1.23;;;;;;;;;;5116631;28;20012;-80
2022/06/07 03:09:16;;;;;;;2.65;1.20;;;;;;;;;;5114426;28;20471;-81
2022/06/07 03:12:02;;;;;;;2.20;1.10;;;;;;;;;;5102078;28;20023;-82
2022/06/07 03:14:48;;;;;;;4.50;1.38;;;;;;;;;;5112529;28;20374;-81
2022/06/07 03:17:34;;;;;;;3.17;1.40;;;;;;;;;;5101464;28;20036;-80
2022/06/07 03:20:20;;;;;;;1.30;1.15;;;;;;;;;;5098313;28;20035;-61
2022/06/07 03:23:06;;;;;;;2.00;1.45;;;;;;;;;;5113352;28;20078;-77
2022/06/07 03:26:01;;;;;;;2.85;1.33;;;;;;;;;;5099383;28;20024;-77
2022/06/07 03:28:46;;;;;;;1.60;1.20;;;;;;;;;;5110553;28;20044;-78
2022/06/07 03:31:32;;;;;;;1.90;1.30;;;;;;;;;;5105902;28;20035;-78
2022/06/07 03:34:18;;;;;;;2.67;1.58;;;;;;;;;;5092639;27;20037;-78
2022/06/07 03:37:03;;;;;;;2.30;1.83;;;;;;;;;;5090345;28;20029;-70
2022/06/07 03:39:49;;;;;;;6.40;1.13;;;;;;;;;;5110506;28;20398;-65
2022/06/07 03:42:34;;;;;;;1.58;1.27;;;;;;;;;;5112873;28;20019;-65
2022/06/07 03:45:20;;;;;;;3.40;1.30;;;;;;;;;;5099072;27;20036;-65
2022/06/07 03:48:06;;;;;;;2.60;1.25;;;;;;;;;;5100403;28;20032;-65
2022/06/07 03:50:52;;;;;;;1.50;1.40;;;;;;;;;;5111057;28;20080;-65
2022/06/07 03:53:38;;;;;;;3.13;1.48;;;;;;;;;;5111553;28;20496;-65
2022/06/07 03:56:24;;;;;;;1.27;1.10;;;;;;;;;;5098910;27;20037;-72
2022/06/07 03:59:10;;;;;;;2.38;1.38;;;;;;;;;;5106399;28;20012;-60
2022/06/07 04:01:55;;;;;;;2.78;1.40;;;;;;;;;;5109249;27;22001;-60
2022/06/07 04:04:41;;;;;;;5.25;1.65;;;;;;;;;;5107818;28;20459;-60
2022/06/07 04:11:07;;;;;;;3.20;1.20;;;;;;;;;;5092816;28;20180;-59
2022/06/07 04:13:53;;;;;;;2.55;1.40;;;;;;;;;;5094094;28;20020;-62
2022/06/07 04:16:40;;;;;;;3.03;1.20;;;;;;;;;;5112142;28;20115;-72
2022/06/07 04:19:26;;;;;;;1.70;1.25;;;;;;;;;;5109594;28;20068;-71
2022/06/07 04:22:11;;;;;;;3.40;1.80;;;;;;;;;;5110814;28;20378;-72
2022/06/07 04:24:57;;;;;;;3.70;1.52;;;;;;;;;;5112023;28;20502;-72
2022/06/07 04:27:42;;;;;;;3.88;1.52;;;;;;;;;;5111780;28;20019;-71
2022/06/07 04:30:28;;;;;;;3.03;1.40;;;;;;;;;;5103159;28;20034;-72
2022/06/07 04:33:17;;;;;;;6.07;1.70;;;;;;;;;;5110849;28;20054;-63
2022/06/07 04:36:03;;;;;;;;;;;;;;;;;;5101904;28;20019;-75
2022/06/07 04:38:49;;;;;;;4.25;1.45;;;;;;;;;;5109546;28;20691;-72
2022/06/07 04:41:35;;;;;;;5.00;1.63;;;;;;;;;;5102386;28;20094;-71
2022/06/07 04:44:20;;;;;;;2.75;1.33;;;;;;;;;;5107635;28;20035;-71
2022/06/07 04:47:06;;;;;;;2.88;1.50;;;;;;;;;;5103003;28;20020;-71
2022/06/07 04:49:51;;;;;;;6.22;1.77;;;;;;;;;;5102822;28;20048;-72
2022/06/07 04:52:37;;;;;;;2.40;1.30;;;;;;;;;;5109991;28;20024;-65
2022/06/07 04:55:23;;;;;;;3.08;1.40;;;;;;;;;;5103861;28;20030;-70
2022/06/07 04:58:08;;;;;;;5.97;1.73;;;;;;;;;;5112002;28;20140;-71
2022/06/07 05:00:54;;;;;;;3.40;1.50;;;;;;;;;;5099238;28;20031;-70
2022/06/07 05:03:40;;;;;;;4.55;2.03;;;;;;;;;;5098799;28;20492;-71
2022/06/07 05:06:25;;;;;;;7.40;2.33;;;;;;;;;;5110687;28;20083;-71
2022/06/07 05:09:17;;;;;;;2.63;1.85;;;;;;;;;;5111091;28;20049;-78
2022/06/07 05:12:03;;;;;;;3.85;1.63;;;;;;;;;;5095075;28;20020;-79
2022/06/07 05:14:49;;;;;;;5.07;1.50;;;;;;;;;;5106389;28;20513;-78
2022/06/07 05:17:35;;;;;;;3.67;1.40;;;;;;;;;;5101537;28;20390;-80
2022/06/07 05:20:20;;;;;;;4.18;2.13;;;;;;;;;;5099073;28;20027;-78
2022/06/07 05:23:06;;;;;;;3.08;1.40;;;;;;;;;;5106701;28;20035;-80
2022/06/07 05:26:01;;;;;;;2.10;1.40;;;;;;;;;;5104522;28;20077;-79
2022/06/07 05:28:47;;;;;;;2.75;1.65;;;;;;;;;;5106535;28;20023;-61
2022/06/07 05:31:32;;;;;;;3.05;1.90;;;;;;;;;;5108289;28;20516;-65
2022/06/07 05:34:18;;;;;;;3.83;1.50;;;;;;;;;;5084629;28;20036;-65
2022/06/07 05:37:03;;;;;;;4.82;1.40;;;;;;;;;;5104721;28;20028;-67
2022/06/07 05:39:49;;;;;;;2.88;1.50;;;;;;;;;;5105934;28;20103;-65
2022/06/07 05:42:35;;;;;;;3.28;1.70;;;;;;;;;;5094242;28;20383;-65
2022/06/07 05:45:20;;;;;;;3.25;1.80;;;;;;;;;;5104964;28;20032;-77
2022/06/07 05:48:06;;;;;;;2.58;1.73;;;;;;;;;;5097203;28;20040;-72
2022/06/07 05:50:52;;;;;;;2.13;1.50;;;;;;;;;;5100331;28;20028;-60
2022/06/07 05:53:38;;;;;;;2.75;1.50;;;;;;;;;;5101655;27;20041;-60
2022/06/07 05:56:24;;;;;;;3.05;1.80;;;;;;;;;;5100470;28;21058;-60
2022/06/07 05:59:10;;;;;;;1.83;1.60;;;;;;;;;;5101692;27;20024;-61
2022/06/07 06:01:56;;;;;;;2.20;1.40;;;;;;;;;;5097958;28;20027;-61
2022/06/07 06:04:41;;;;;;;2.20;1.58;;;;;;;;;;5094957;28;20031;-63
2022/06/07 06:07:28;;;;;;;2.42;1.42;;;;;;;;;;5081785;28;20016;-65
2022/06/07 06:10:19;;;;;;;18.08;6.10;;;;;;;;;;5102493;28;20016;-64
2022/06/07 06:13:05;;;;;;;14.60;4.40;;;;;;;;;;5105036;28;20424;-67
2022/06/07 06:15:59;;;;;;;12.65;2.95;;;;;;;;;;5108953;28;20020;-64
2022/06/07 06:18:45;;;;;;;7.32;2.15;;;;;;;;;;5106243;28;20038;-66
2022/06/07 06:21:38;;;;;;;5.07;1.67;;;;;;;;;;5109438;28;20024;-64
2022/06/07 06:24:25;;;;;;;6.95;2.50;;;;;;;;;;5113926;28;20405;-71
2022/06/07 06:27:11;;;;;;;10.52;2.65;;;;;;;;;;5108041;27;20031;-68
2022/06/07 06:29:56;;;;;;;4.50;2.65;;;;;;;;;;5094520;28;20099;-68
2022/06/07 06:32:43;;;;;;;4.72;1.52;;;;;;;;;;5105777;28;20434;-68
2022/06/07 06:35:29;;;;;;;2.35;1.20;;;;;;;;;;5094804;28;20028;-68
2022/06/07 06:38:15;;;;;;;1.40;1.10;;;;;;;;;;5095961;27;20020;-68
2022/06/07 06:41:08;;;;;;;1.73;1.30;;;;;;;;;;5097020;28;20035;-71
2022/06/07 06:43:54;;;;;;;3.90;1.50;;;;;;;;;;5097639;28;20443;-69
2022/06/07 06:46:42;;;;;;;3.60;1.20;;;;;;;;;;5094820;27;20008;-69
2022/06/07 06:49:28;;;;;;;1.90;1.15;;;;;;;;;;5092408;28;20052;-67
2022/06/07 06:52:13;;;;;;;2.70;1.42;;;;;;;;;;5093310;27;20016;-68
2022/06/07 06:54:59;;;;;;;2.58;1.20;;;;;;;;;;5092597;28;20080;-68
2022/06/07 06:57:44;;;;;;;1.65;1.50;;;;;;;;;;5094234;28;20028;-68
2022/06/07 07:00:30;;;;;;;3.22;1.20;;;;;;;;;;5098777;28;20060;-73
2022/06/07 07:03:16;;;;;;;5.07;1.63;;;;;;;;;;5098877;28;20060;-78
2022/06/07 07:06:02;;;;;;;3.55;1.20;;;;;;;;;;5094092;28;20035;-77
2022/06/07 07:08:48;;;;;;;4.05;1.90;;;;;;;;;;5099557;27;20023;-76
2022/06/07 07:11:39;;;;;;;2.15;1.15;;;;;;;;;;5099927;28;20024;-77
2022/06/07 07:14:24;;;;;;;3.88;1.00;;;;;;;;;;5110908;28;20048;-76
2022/06/07 07:17:10;;;;;;;3.25;1.40;;;;;;;;;;5113013;28;20390;-69
2022/06/07 07:19:55;;;;;;;5.32;1.98;;;;;;;;;;5112960;28;20073;-75
2022/06/07 07:22:41;;;;;;;5.47;1.58;;;;;;;;;;5113133;28;20031;-59
2022/06/07 07:25:27;;;;;;;4.28;1.98;;;;;;;;;;5099185;28;20489;-60
2022/06/07 07:28:13;;;;;;;2.78;1.30;;;;;;;;;;5103014;28;20016;-61
2022/06/07 07:30:59;;;;;;;2.17;1.35;;;;;;;;;;5099672;28;20024;-60
2022/06/07 07:33:45;;;;;;;1.67;1.10;;;;;;;;;;5111587;28;20118;-60
2022/06/07 07:36:31;;;;;;;2.70;1.10;;;;;;;;;;5105693;27;20019;-78
2022/06/07 07:39:17;;;;;;;4.25;1.20;;;;;;;;;;5106458;28;20020;-63
2022/06/07 07:42:03;;;;;;;2.35;1.00;;;;;;;;;;5100058;28;20108;-61
2022/06/07 07:44:48;;;;;;;2.00;1.05;;;;;;;;;;5106205;28;20107;-60
2022/06/07 07:47:34;;;;;;;4.70;1.30;;;;;;;;;;5110135;28;20034;-61
2022/06/07 07:50:20;;;;;;;1.48;1.10;;;;;;;;;;5100910;28;20039;-61
2022/06/07 07:53:06;;;;;;;3.42;0.90;;;;;;;;;;5099271;28;20052;-61
2022/06/07 07:55:51;;;;;;;2.50;1.13;;;;;;;;;;5100160;28;20020;-68
2022/06/07 07:58:37;;;;;;;2.67;1.40;;;;;;;;;;5112800;28;20020;-70
2022/06/07 08:01:24;;;;;;;3.78;0.98;;;;;;;;;;5095218;28;20462;-72
2022/06/07 08:04:10;;;;;;;1.73;1.10;;;;;;;;;;5104037;27;20071;-71
2022/06/07 08:06:56;;;;;;;2.28;1.33;;;;;;;;;;5112605;28;20027;-73
2022/06/07 08:09:42;;;;;;;2.55;1.48;;;;;;;;;;5097335;28;20527;-74
2022/06/07 08:12:28;;;;;;;0.98;0.85;;;;;;;;;;5096903;28;20099;-63
2022/06/07 08:15:15;;;;;;;1.52;1.10;;;;;;;;;;5102996;28;20068;-70
2022/06/07 08:18:02;;;;;;;1.83;1.15;;;;;;;;;;5117786;28;20020;-71
2022/06/07 08:20:47;;;;;;;2.67;1.35;;;;;;;;;;5098542;28;20072;-72
2022/06/07 08:23:34;;;;;;;2.13;1.20;;;;;;;;;;5098512;28;20421;-73
2022/06/07 08:26:20;;;;;;;1.45;0.90;;;;;;;;;;5110394;28;20028;-72
2022/06/07 08:29:05;;;;;;;2.47;1.05;;;;;;;;;;5100963;27;20428;-73
2022/06/07 08:31:51;;;;;;;1.48;0.90;;;;;;;;;;5105430;28;20462;-75
2022/06/07 08:37:41;;;;;;;3.30;1.00;;;;;;;;;;5099471;28;20024;-65
2022/06/07 08:40:35;;;;;;;0.82;0.82;;;;;;;;;;5108845;28;20102;-67
2022/06/07 08:43:20;;;;;;;4.10;1.48;;;;;;;;;;5101095;28;20030;-66
2022/06/07 08:46:07;;;;;;;2.40;1.08;;;;;;;;;;5110572;28;20391;-66
2022/06/07 08:48:53;;;;;;;2.58;0.80;;;;;;;;;;5114374;28;20044;-65
2022/06/07 08:51:45;;;;;;;3.58;1.45;;;;;;;;;;5111225;28;20080;-76
2022/06/07 08:54:34;;;;;;;2.05;1.10;;;;;;;;;;5111346;28;20077;-71
2022/06/07 08:57:21;;;;;;;4.00;1.02;;;;;;;;;;5102885;28;20367;-71
2022/06/07 09:00:14;;;;;;;1.20;1.08;;;;;;;;;;5108813;28;20112;-71
2022/06/07 09:03:28;;;;;;;3.45;1.10;;;;;;;;;;5101059;28;20382;-71
2022/06/07 09:06:24;;;;;;;2.20;1.10;;;;;;;;;;5108450;28;20100;-71
2022/06/07 09:09:11;;;;;;;2.42;1.15;;;;;;;;;;5104057;28;20026;-62
2022/06/07 09:12:10;;;;;;;1.98;0.82;;;;;;;;;;5100779;28;20434;-65
2022/06/07 09:14:55;;;;;;;;;;;;;;;;;;5104430;28;20027;-66
2022/06/07 09:17:46;;;;;;;2.75;0.85;;;;;;;;;;5100525;28;19911;-64
2022/06/07 09:20:38;;;;;;;1.48;1.02;;;;;;;;;;5106967;28;20019;-65
2022/06/07 09:23:27;;;;;;;2.72;1.35;;;;;;;;;;5106940;28;20024;-65
2022/06/07 09:26:13;;;;;;;;;;;;;;;;;;5105094;28;20042;-75
2022/06/07 09:29:27;;;;;;;2.03;1.05;;;;;;;;;;5113006;27;19998;-61
2022/06/07 09:32:17;;;;;;;1.67;1.05;;;;;;;;;;5090346;28;20391;-71
2022/06/07 09:35:08;;;;;;;1.45;1.00;;;;;;;;;;5095823;28;20162;-70
2022/06/07 09:37:56;;;;;;;1.35;0.88;;;;;;;;;;5109030;28;20103;-70
2022/06/07 09:40:46;;;;;;;1.15;1.05;;;;;;;;;;5115169;28;20275;-70
2022/06/07 09:43:41;;;;;;;2.35;1.35;;;;;;;;;;5085984;28;20040;-70
2022/06/07 09:46:26;;;;;;;1.30;0.95;;;;;;;;;;5100489;28;20031;-75
2022/06/07 09:49:26;;;;;;;1.60;0.80;;;;;;;;;;5106451;28;20043;-71
2022/06/07 09:52:20;;;;;;;1.17;0.88;;;;;;;;;;5108713;28;20039;-70
2022/06/07 09:55:26;;;;;;;0.95;0.73;;;;;;;;;;5110866;28;20016;-69
2022/06/07 09:58:14;;;;;;;2.78;1.00;;;;;;;;;;5074315;27;20042;-70
2022/06/07 10:01:04;;;;;;;2.58;1.20;;;;;;;;;;5111900;28;20157;-70
2022/06/07 10:04:11;;;;;;;1.20;0.90;;;;;;;;;;5100886;27;20039;-72
2022/06/07 10:06:58;;;;;;;3.58;0.85;;;;;;;;;;5111270;28;20024;-75
2022/06/07 10:09:53;;;;;;;3.15;1.50;;;;;;;;;;5106039;28;20391;-60
2022/06/07 10:12:49;;;;;;;3.28;1.30;;;;;;;;;;5104428;28;20023;-60
2022/06/07 10:15:38;;;;;;;2.72;0.90;;;;;;;;;;5108605;28;20020;-62
2022/06/07 10:18:33;;;;;;;3.05;1.50;;;;;;;;;;5111129;28;20453;-61
2022/06/07 10:21:19;;;;;;;1.63;1.50;;;;;;;;;;5106005;27;20043;-64
2022/06/07 10:24:07;;;;;;;1.45;1.05;;;;;;;;;;5096977;28;20123;-57
2022/06/07 10:26:59;;;;;;;3.45;1.42;;;;;;;;;;5112344;28;20428;-68
2022/06/07 10:29:44;;;;;;;4.32;1.23;;;;;;;;;;5099807;28;20495;-69
2022/06/07 10:32:37;;;;;;;2.33;1.23;;;;;;;;;;5107585;27;20030;-70
2022/06/07 10:35:28;;;;;;;3.13;1.10;;;;;;;;;;5111168;28;20442;-71
2022/06/07 10:38:33;;;;;;;3.50;1.30;;;;;;;;;;5114015;28;20023;-72
2022/06/07 10:41:21;;;;;;;7.60;1.30;;;;;;;;;;5121257;27;20108;-64
2022/06/07 10:44:19;;;;;;;3.67;1.20;;;;;;;;;;5112013;27;20050;-69
2022/06/07 10:47:12;;;;;;;3.65;1.20;;;;;;;;;;5113027;28;20053;-70
2022/06/07 10:50:03;;;;;;;3.10;1.00;;;;;;;;;;5103212;28;20046;-69
2022/06/07 10:53:10;;;;;;;1.33;0.90;;;;;;;;;;5115027;27;20012;-68
2022/06/07 10:56:10;;;;;;;1.83;0.85;;;;;;;;;;5106242;28;20141;-70
2022/06/07 10:58:57;;;;;;;3.10;1.33;;;;;;;;;;5113207;28;20024;-69
2022/06/07 11:01:47;;;;;;;1.75;1.08;;;;;;;;;;5107767;28;20032;-78
2022/06/07 11:11:06;;;;;;;1.67;0.90;;;;;;;;;;5098011;28;20446;-74
2022/06/07 11:13:55;;;;;;;3.53;1.20;;;;;;;;;;5087817;28;20234;-76
2022/06/07 11:16:40;;;;;;;2.20;0.90;;;;;;;;;;5102099;28;20023;-73
2022/06/07 11:19:26;;;;;;;1.55;0.82;;;;;;;;;;5104531;28;20286;-69
2022/06/07 11:22:17;;;;;;;1.67;0.80;;;;;;;;;;5109393;28;20084;-70
2022/06/07 11:25:28;;;;;;;1.42;1.02;;;;;;;;;;5096506;28;20031;-72
2022/06/07 11:28:17;;;;;;;2.22;1.10;;;;;;;;;;5102888;27;20078;-71
2022/06/07 11:31:23;;;;;;;5.20;1.60;;;;;;;;;;5088431;28;20020;-70
2022/06/07 11:34:24;;;;;;;1.90;1.20;;;;;;;;;;5103617;27;20020;-71
2022/06/07 11:37:09;;;;;;;1.33;1.00;;;;;;;;;;5103231;28;20436;-76
2022/06/07 11:39:56;;;;;;;1.77;0.98;;;;;;;;;;5103513;28;20076;-73
2022/06/07 11:42:42;;;;;;;1.55;1.10;;;;;;;;;;5110863;27;20019;-73
2022/06/07 11:45:27;;;;;;;1.30;0.98;;;;;;;;;;5111556;27;20470;-74
2022/06/07 11:48:21;;;;;;;1.92;0.93;;;;;;;;;;5111768;28;20152;-74
2022/06/07 11:51:14;;;;;;;3.97;1.10;;;;;;;;;;5114045;28;20016;-74
2022/06/07 11:54:04;;;;;;;2.55;1.20;;;;;;;;;;5097616;27;20073;-70
2022/06/07 11:56:51;;;;;;;1.35;1.25;;;;;;;;;;5114227;27;20020;-62
2022/06/07 11:59:47;;;;;;;2.70;0.98;;;;;;;;;;5104859;28;20024;-62
2022/06/07 12:02:35;;;;;;;2.58;1.52;;;;;;;;;;5102414;28;20016;-62
2022/06/07 12:05:28;;;;;;;1.80;1.38;;;;;;;;;;5093052;28;20394;-62
2022/06/07 12:08:23;;;;;;;2.47;1.27;;;;;;;;;;5096538;27;20016;-62
2022/06/07 12:11:42;;;;;;;2.15;0.90;;;;;;;;;;5093969;28;20028;-60
2022/06/07 12:14:35;;;;;;;2.25;1.30;;;;;;;;;;5103097;27;20032;-69
2022/06/07 12:17:24;;;;;;;1.52;1.08;;;;;;;;;;5105256;28;20490;-63
2022/06/07 12:20:21;;;;;;;2.08;1.30;;;;;;;;;;5108045;28;20403;-62
2022/06/07 12:23:25;;;;;;;1.90;1.20;;;;;;;;;;5107454;28;20037;-60
2022/06/07 12:26:47;;;;;;;1.58;1.23;;;;;;;;;;5098295;28;20049;-62
2022/06/07 12:29:32;;;;;;;2.33;1.08;;;;;;;;;;5065171;27;20096;-61
2022/06/07 12:32:25;;;;;;;4.20;1.58;;;;;;;;;;5105907;28;20448;-61
2022/06/07 12:35:22;;;;;;;3.22;1.10;;;;;;;;;;5110614;28;20499;-73
2022/06/07 12:38:12;;;;;;;2.10;1.20;;;;;;;;;;5107872;28;20106;-73
2022/06/07 12:41:02;;;;;;;2.42;0.90;;;;;;;;;;5107130;28;20099;-73
2022/06/07 12:43:51;;;;;;;3.10;1.20;;;;;;;;;;5097567;28;20028;-72
2022/06/07 12:46:45;;;;;;;1.37;0.93;;;;;;;;;;5101705;28;20028;-73
2022/06/07 12:49:39;;;;;;;1.42;1.10;;;;;;;;;;5106049;28;20134;-59
2022/06/07 12:52:26;;;;;;;2.10;1.10;;;;;;;;;;5101747;28;20008;-60
2022/06/07 12:55:13;;;;;;;1.23;0.90;;;;;;;;;;5102347;28;20066;-62
2022/06/07 12:58:01;;;;;;;2.53;1.00;;;;;;;;;;5106035;28;20046;-60
2022/06/07 13:00:47;;;;;;;2.78;1.50;;;;;;;;;;5111474;28;20036;-61
2022/06/07 13:03:36;;;;;;;3.22;1.27;;;;;;;;;;5105785;28;20055;-62
2022/06/07 13:06:23;;;;;;;2.10;1.15;;;;;;;;;;5112047;27;20023;-63
2022/06/07 13:09:19;;;;;;;4.05;1.23;;;;;;;;;;5111924;28;20040;-63
2022/06/07 13:12:06;;;;;;;3.13;1.10;;;;;;;;;;5106417;28;20019;-74
2022/06/07 13:14:55;;;;;;;1.63;1.00;;;;;;;;;;5108283;27;20111;-74
2022/06/07 13:17:42;;;;;;;1.42;1.00;;;;;;;;;;5102139;28;20394;-74
2022/06/07 13:20:27;;;;;;;1.48;1.05;;;;;;;;;;5110966;28;20390;-75
2022/06/07 13:23:25;;;;;;;1.10;1.00;;;;;;;;;;5111133;28;20066;-75
2022/06/07 13:26:16;;;;;;;1.50;1.17;;;;;;;;;;5111134;28;20019;-74
2022/06/07 13:29:14;;;;;;;1.75;0.98;;;;;;;;;;5096992;28;20107;-66
2022/06/07 13:32:00;;;;;;;2.42;1.25;;;;;;;;;;5110856;27;20011;-67
2022/06/07 13:34:53;;;;;;;1.45;1.02;;;;;;;;;;5099747;28;20020;-67
2022/06/07 13:37:56;;;;;;;1.20;1.02;;;;;;;;;;5121714;28;20030;-67
2022/06/07 13:40:43;;;;;;;1.92;1.10;;;;;;;;;;5101259;28;20047;-67
2022/06/07 13:43:29;;;;;;;1.00;0.88;;;;;;;;;;5107962;28;20034;-67
2022/06/07 13:46:22;;;;;;;2.55;1.20;;;;;;;;;;5101638;28;20023;-70
2022/06/07 13:55:35;;;;;;;1.05;0.95;;;;;;;;;;5115746;28;20020;-63
2022/06/07 13:58:22;;;;;;;3.53;1.30;;;;;;;;;;5108480;28;20027;-63
2022/06/07 14:01:18;;;;;;;4.15;1.15;;;;;;;;;;5101839;28;20071;-62
2022/06/07 14:04:12;;;;;;;1.30;0.95;;;;;;;;;;5099915;27;20028;-69
2022/06/07 14:06:58;;;;;;;2.47;0.90;;;;;;;;;;5113250;28;20471;-68
2022/06/07 14:09:44;;;;;;;1.00;0.90;;;;;;;;;;5118973;28;20223;-70
2022/06/07 14:12:30;;;;;;;1.05;0.98;;;;;;;;;;5114345;27;20020;-68
2022/06/07 14:15:16;;;;;;;2.35;1.33;;;;;;;;;;5106835;28;20118;-70
2022/06/07 14:18:02;;;;;;;0.80;0.80;;;;;;;;;;5098859;28;20471;-69
2022/06/07 14:20:48;;;;;;;2.88;0.90;;;;;;;;;;5101518;28;20047;-70
2022/06/07 14:23:33;;;;;;;1.98;0.90;;;;;;;;;;5109096;27;20093;-61
2022/06/07 14:26:19;;;;;;;1.85;1.00;;;;;;;;;;5099144;28;20024;-59
2022/06/07 14:29:04;;;;;;;1.20;1.08;;;;;;;;;;5099810;28;20051;-61
2022/06/07 14:31:50;;;;;;;1.70;1.00;;;;;;;;;;5103386;28;20110;-61
2022/06/07 14:34:35;;;;;;;2.72;1.00;;;;;;;;;;5108048;28;20062;-61
2022/06/07 14:37:21;;;;;;;0.80;0.80;;;;;;;;;;5100441;27;20051;-61
2022/06/07 14:40:13;;;;;;;1.50;1.10;;;;;;;;;;5100953;28;20027;-74
2022/06/07 14:42:59;;;;;;;1.10;0.95;;;;;;;;;;5107814;28;20068;-73
2022/06/07 14:45:47;;;;;;;3.80;1.10;;;;;;;;;;5101947;28;20065;-68
2022/06/07 14:48:33;;;;;;;3.22;1.00;;;;;;;;;;5105949;28;20048;-69
2022/06/07 14:51:23;;;;;;;4.30;1.23;;;;;;;;;;5112398;27;20020;-68
2022/06/07 14:54:19;;;;;;;1.50;1.02;;;;;;;;;;5097400;27;20136;-69
2022/06/07 14:57:11;;;;;;;2.38;1.00;;;;;;;;;;5112747;27;20074;-68
2022/06/07 14:59:56;;;;;;;3.00;1.10;;;;;;;;;;5113751;27;20536;-61
2022/06/07 15:02:43;;;;;;;3.53;1.10;;;;;;;;;;5110350;27;20064;-69
2022/06/07 15:05:30;;;;;;;2.22;1.27;;;;;;;;;;5107179;27;20042;-69
2022/06/07 15:08:16;;;;;;;4.03;1.20;;;;;;;;;;5115558;27;20423;-70
2022/06/07 15:11:02;;;;;;;4.35;1.38;;;;;;;;;;5104001;27;20429;-68
2022/06/07 15:13:48;;;;;;;2.50;1.58;;;;;;;;;;5105429;28;20016;-69
2022/06/07 15:16:34;;;;;;;4.30;1.20;;;;;;;;;;5110373;28;20019;-70
2022/06/07 15:19:23;;;;;;;1.33;1.00;;;;;;;;;;5104348;27;20016;-66
2022/06/07 15:22:10;;;;;;;3.05;1.20;;;;;;;;;;5106984;28;20047;-67
2022/06/07 15:24:55;;;;;;;1.98;1.50;;;;;;;;;;5109450;28;20405;-66
2022/06/07 15:27:41;;;;;;;2.35;1.20;;;;;;;;;;5101177;28;20027;-65
2022/06/07 15:30:26;;;;;;;3.55;1.30;;;;;;;;;;5105601;28;20024;-65
2022/06/07 15:33:14;;;;;;;2.22;1.30;;;;;;;;;;5102894;28;20050;-66
2022/06/07 15:35:59;;;;;;;1.08;0.98;;;;;;;;;;5099213;28;20027;-63
2022/06/07 15:38:46;;;;;;;5.03;1.42;;;;;;;;;;5113622;27;20027;-62
2022/06/07 15:44:37;;;;;;;6.00;1.85;;;;;;;;;;5101786;27;20094;-63
2022/06/07 15:47:23;;;;;;;11.63;2.70;;;;;;;;;;5104385;28;20050;-63
2022/06/07 15:50:10;;;;;;;7.40;2.83;;;;;;;;;;5078478;28;20050;-62
2022/06/07 15:52:57;;;;;;;7.13;2.35;;;;;;;;;;5085974;28;20023;-57
2022/06/07 15:55:43;;;;;;;7.75;2.20;;;;;;;;;;5079560;28;20020;-68
2022/06/07 16:01:37;;;;;;;4.93;1.83;;;;;;;;;;5076397;28;20368;-71
2022/06/07 16:04:23;;;;;;;5.15;1.98;;;;;;;;;;5080299;28;20032;-70
2022/06/07 16:07:09;;;;;;;11.27;2.85;;;;;;;;;;5088638;28;20068;-66
2022/06/07 16:09:54;;;;;;;7.00;1.70;;;;;;;;;;5074528;28;20028;-68
2022/06/07 16:12:40;;;;;;;5.78;2.10;;;;;;;;;;5074350;28;20024;-63
2022/06/07 16:15:27;;;;;;;4.07;1.95;;;;;;;;;;5092262;28;20492;-61
2022/06/07 16:18:13;;;;;;;1.70;1.58;;;;;;;;;;5083873;28;20055;-65
2022/06/07 16:21:00;;;;;;;4.50;2.00;;;;;;;;;;5077408;28;20046;-64
2022/06/07 16:23:45;;;;;;;3.20;1.80;;;;;;;;;;5079079;28;20035;-62
2022/06/07 16:26:31;;;;;;;4.85;2.00;;;;;;;;;;5085859;28;20399;-60
2022/06/07 16:35:25;;;;;;;4.57;1.80;;;;;;;;;;5078584;28;20483;-62
2022/06/07 16:38:11;;;;;;;3.85;1.70;;;;;;;;;;5081693;28;20391;-61
2022/06/07 16:40:57;;;;;;;3.05;1.70;;;;;;;;;;5073980;28;20024;-61
2022/06/07 16:44:01;;;;;;;3.92;2.20;;;;;;;;;;5086369;28;20035;-63
2022/06/07 16:46:49;;;;;;;5.18;1.55;;;;;;;;;;5082258;28;20035;-63
2022/06/07 16:49:35;;;;;;;5.55;1.77;;;;;;;;;;5099739;28;20115;-56
2022/06/07 16:52:20;;;;;;;4.43;1.60;;;;;;;;;;5086263;28;20041;-61
2022/06/07 16:55:06;;;;;;;7.72;2.17;;;;;;;;;;5098458;28;20440;-60
2022/06/07 16:57:52;;;;;;;4.63;1.98;;;;;;;;;;5100194;28;20020;-57
2022/06/07 17:00:38;;;;;;;27.92;17.13;;;;;;;;;;5094516;28;20032;-71
2022/06/07 17:03:25;;;;;;;10.23;4.72;;;;;;;;;;5093998;28;20067;-70
2022/06/07 17:06:11;;;;;;;10.07;5.05;;;;;;;;;;5093142;28;20112;-58
2022/06/07 17:08:57;;;;;;;10.98;4.05;;;;;;;;;;5104637;28;20481;-59
2022/06/07 17:11:43;;;;;;;5.80;2.20;;;;;;;;;;5098864;28;20475;-65
2022/06/07 17:14:29;;;;;;;11.00;6.72;;;;;;;;;;5098723;28;20031;-66
2022/06/07 17:17:15;;;;;;;74.57;58.45;;;;;;;;;;5099036;28;20039;-65
2022/06/07 17:20:01;;;;;;;108.28;85.05;;;;;;;;;;5099720;28;20020;-65
2022/06/07 17:22:46;;;;;;;22.92;16.30;;;;;;;;;;5104332;28;20548;-65
2022/06/07 17:25:32;;;;;;;7.80;4.80;;;;;;;;;;5096264;28;20027;-66
2022/06/07 17:28:17;;;;;;;15.88;4.80;;;;;;;;;;5103465;28;20092;-66
2022/06/07 17:31:04;;;;;;;6.75;2.92;;;;;;;;;;5096955;28;20032;-70